sensor_id;sensor_type;location;lat;lon;timestamp;P1;durP1;ratioP1;P2;durP2;ratioP2
62338;SDS011;48368;53.406;6.214;2024-03-08T00:00:07;53.60;;;22.67;;
62338;SDS011;48368;53.406;6.214;2024-03-08T00:02:39;41.92;;;21.33;;
62338;SDS011;48368;53.406;6.214;2024-03-08T00:05:06;45.22;;;21.20;;
62338;SDS011;48368;53.406;6.214;2024-03-08T00:07:34;46.17;;;23.42;;
62338;SDS011;48368;53.406;6.214;2024-03-08T00:10:01;45.25;;;23.60;;
62338;SDS011;48368;53.406;6.214;2024-03-08T00:12:30;45.55;;;23.65;;
62338;SDS011;48368;53.406;6.214;2024-03-08T00:14:56;48.50;;;23.63;;
62338;SDS011;48368;53.406;6.214;2024-03-08T00:17:28;60.03;;;24.67;;
62338;SDS011;48368;53.406;6.214;2024-03-08T00:19:53;52.40;;;24.70;;
62338;SDS011;48368;53.406;6.214;2024-03-08T00:22:19;57.38;;;24.13;;
62338;SDS011;48368;53.406;6.214;2024-03-08T00:24:47;53.25;;;25.58;;
62338;SDS011;48368;53.406;6.214;2024-03-08T00:27:15;48.83;;;24.45;;
62338;SDS011;48368;53.406;6.214;2024-03-08T00:29:44;54.67;;;26.75;;
62338;SDS011;48368;53.406;6.214;2024-03-08T00:32:10;58.45;;;27.00;;
62338;SDS011;48368;53.406;6.214;2024-03-08T00:34:36;55.47;;;26.65;;
62338;SDS011;48368;53.406;6.214;2024-03-08T00:37:03;58.17;;;27.08;;
62338;SDS011;48368;53.406;6.214;2024-03-08T00:39:30;56.63;;;26.08;;
62338;SDS011;48368;53.406;6.214;2024-03-08T00:41:56;65.47;;;31.42;;
62338;SDS011;48368;53.406;6.214;2024-03-08T00:44:21;60.92;;;27.02;;
62338;SDS011;48368;53.406;6.214;2024-03-08T00:46:47;58.47;;;27.88;;
62338;SDS011;48368;53.406;6.214;2024-03-08T00:49:13;61.67;;;27.63;;
62338;SDS011;48368;53.406;6.214;2024-03-08T00:51:38;62.08;;;28.27;;
62338;SDS011;48368;53.406;6.214;2024-03-08T00:54:04;54.05;;;26.88;;
62338;SDS011;48368;53.406;6.214;2024-03-08T00:56:29;54.05;;;27.63;;
62338;SDS011;48368;53.406;6.214;2024-03-08T00:59:04;57.72;;;26.30;;
62338;SDS011;48368;53.406;6.214;2024-03-08T01:01:30;62.25;;;29.15;;
62338;SDS011;48368;53.406;6.214;2024-03-08T01:03:55;59.72;;;29.17;;
62338;SDS011;48368;53.406;6.214;2024-03-08T01:06:22;57.60;;;28.60;;
62338;SDS011;48368;53.406;6.214;2024-03-08T01:08:47;61.05;;;29.05;;
62338;SDS011;48368;53.406;6.214;2024-03-08T01:11:13;55.92;;;27.15;;
62338;SDS011;48368;53.406;6.214;2024-03-08T01:13:42;60.70;;;28.48;;
62338;SDS011;48368;53.406;6.214;2024-03-08T01:16:07;61.10;;;29.30;;
62338;SDS011;48368;53.406;6.214;2024-03-08T01:18:33;64.88;;;29.70;;
62338;SDS011;48368;53.406;6.214;2024-03-08T01:20:59;63.70;;;28.65;;
62338;SDS011;48368;53.406;6.214;2024-03-08T01:23:27;67.55;;;30.00;;
62338;SDS011;48368;53.406;6.214;2024-03-08T01:25:54;64.15;;;29.08;;
62338;SDS011;48368;53.406;6.214;2024-03-08T01:28:23;64.50;;;27.23;;
62338;SDS011;48368;53.406;6.214;2024-03-08T01:30:49;58.40;;;28.63;;
62338;SDS011;48368;53.406;6.214;2024-03-08T01:33:20;64.80;;;29.70;;
62338;SDS011;48368;53.406;6.214;2024-03-08T01:35:50;54.22;;;26.55;;
62338;SDS011;48368;53.406;6.214;2024-03-08T01:38:18;61.42;;;29.42;;
62338;SDS011;48368;53.406;6.214;2024-03-08T01:40:46;62.90;;;28.67;;
62338;SDS011;48368;53.406;6.214;2024-03-08T01:46:06;64.15;;;28.52;;
62338;SDS011;48368;53.406;6.214;2024-03-08T01:48:34;62.80;;;28.95;;
62338;SDS011;48368;53.406;6.214;2024-03-08T01:51:00;60.88;;;28.48;;
62338;SDS011;48368;53.406;6.214;2024-03-08T01:53:26;57.17;;;28.45;;
62338;SDS011;48368;53.406;6.214;2024-03-08T01:55:54;65.28;;;29.05;;
62338;SDS011;48368;53.406;6.214;2024-03-08T01:58:22;59.67;;;26.88;;
62338;SDS011;48368;53.406;6.214;2024-03-08T02:00:48;59.97;;;26.80;;
62338;SDS011;48368;53.406;6.214;2024-03-08T02:03:15;59.13;;;27.10;;
62338;SDS011;48368;53.406;6.214;2024-03-08T02:05:41;58.03;;;27.85;;
62338;SDS011;48368;53.406;6.214;2024-03-08T02:08:07;56.03;;;26.83;;
62338;SDS011;48368;53.406;6.214;2024-03-08T02:10:38;59.83;;;26.92;;
62338;SDS011;48368;53.406;6.214;2024-03-08T02:13:04;55.58;;;28.63;;
62338;SDS011;48368;53.406;6.214;2024-03-08T02:18:21;54.80;;;25.42;;
62338;SDS011;48368;53.406;6.214;2024-03-08T02:20:57;55.42;;;24.95;;
62338;SDS011;48368;53.406;6.214;2024-03-08T02:23:24;54.30;;;27.42;;
62338;SDS011;48368;53.406;6.214;2024-03-08T02:25:51;54.33;;;25.40;;
62338;SDS011;48368;53.406;6.214;2024-03-08T02:28:18;54.55;;;26.15;;
62338;SDS011;48368;53.406;6.214;2024-03-08T02:30:44;51.50;;;25.83;;
62338;SDS011;48368;53.406;6.214;2024-03-08T02:33:14;53.03;;;25.25;;
62338;SDS011;48368;53.406;6.214;2024-03-08T02:35:47;51.60;;;25.95;;
62338;SDS011;48368;53.406;6.214;2024-03-08T02:38:20;49.22;;;24.92;;
62338;SDS011;48368;53.406;6.214;2024-03-08T02:40:50;51.67;;;25.08;;
62338;SDS011;48368;53.406;6.214;2024-03-08T02:43:18;57.13;;;28.45;;
62338;SDS011;48368;53.406;6.214;2024-03-08T02:45:44;51.78;;;24.67;;
62338;SDS011;48368;53.406;6.214;2024-03-08T02:48:10;50.67;;;25.80;;
62338;SDS011;48368;53.406;6.214;2024-03-08T02:50:37;52.03;;;26.02;;
62338;SDS011;48368;53.406;6.214;2024-03-08T02:53:04;53.10;;;26.48;;
62338;SDS011;48368;53.406;6.214;2024-03-08T02:55:30;51.70;;;24.92;;
62338;SDS011;48368;53.406;6.214;2024-03-08T02:57:56;58.47;;;26.30;;
62338;SDS011;48368;53.406;6.214;2024-03-08T03:00:22;55.50;;;29.02;;
62338;SDS011;48368;53.406;6.214;2024-03-08T03:02:49;51.83;;;25.60;;
62338;SDS011;48368;53.406;6.214;2024-03-08T03:05:21;48.80;;;25.20;;
62338;SDS011;48368;53.406;6.214;2024-03-08T03:07:50;49.80;;;26.48;;
62338;SDS011;48368;53.406;6.214;2024-03-08T03:10:17;51.22;;;25.50;;
62338;SDS011;48368;53.406;6.214;2024-03-08T03:12:43;54.80;;;25.23;;
62338;SDS011;48368;53.406;6.214;2024-03-08T03:15:11;48.25;;;26.10;;
62338;SDS011;48368;53.406;6.214;2024-03-08T03:17:37;50.47;;;23.92;;
62338;SDS011;48368;53.406;6.214;2024-03-08T03:20:07;57.10;;;25.17;;
62338;SDS011;48368;53.406;6.214;2024-03-08T03:22:39;43.13;;;22.85;;
62338;SDS011;48368;53.406;6.214;2024-03-08T03:25:06;47.20;;;23.75;;
62338;SDS011;48368;53.406;6.214;2024-03-08T03:27:35;48.90;;;24.40;;
62338;SDS011;48368;53.406;6.214;2024-03-08T03:30:01;49.38;;;23.40;;
62338;SDS011;48368;53.406;6.214;2024-03-08T03:32:49;55.00;;;25.00;;
62338;SDS011;48368;53.406;6.214;2024-03-08T03:35:20;52.13;;;23.52;;
62338;SDS011;48368;53.406;6.214;2024-03-08T03:37:48;51.20;;;26.10;;
62338;SDS011;48368;53.406;6.214;2024-03-08T03:40:30;50.45;;;24.98;;
62338;SDS011;48368;53.406;6.214;2024-03-08T03:42:56;48.55;;;23.08;;
62338;SDS011;48368;53.406;6.214;2024-03-08T03:45:22;42.00;;;22.35;;
62338;SDS011;48368;53.406;6.214;2024-03-08T03:47:48;47.75;;;24.55;;
62338;SDS011;48368;53.406;6.214;2024-03-08T03:50:14;46.28;;;22.92;;
62338;SDS011;48368;53.406;6.214;2024-03-08T03:52:40;45.75;;;24.45;;
62338;SDS011;48368;53.406;6.214;2024-03-08T03:55:09;43.70;;;21.48;;
62338;SDS011;48368;53.406;6.214;2024-03-08T03:57:39;44.38;;;23.15;;
62338;SDS011;48368;53.406;6.214;2024-03-08T04:00:06;47.28;;;23.85;;
62338;SDS011;48368;53.406;6.214;2024-03-08T04:02:36;47.15;;;23.42;;
62338;SDS011;48368;53.406;6.214;2024-03-08T04:05:06;45.75;;;22.77;;
62338;SDS011;48368;53.406;6.214;2024-03-08T04:07:33;48.60;;;25.08;;
62338;SDS011;48368;53.406;6.214;2024-03-08T04:09:59;46.28;;;24.77;;
62338;SDS011;48368;53.406;6.214;2024-03-08T04:12:27;48.30;;;24.10;;
62338;SDS011;48368;53.406;6.214;2024-03-08T04:14:54;44.67;;;22.75;;
62338;SDS011;48368;53.406;6.214;2024-03-08T04:17:20;43.58;;;22.08;;
62338;SDS011;48368;53.406;6.214;2024-03-08T04:19:47;49.10;;;23.83;;
62338;SDS011;48368;53.406;6.214;2024-03-08T04:22:13;47.25;;;21.90;;
62338;SDS011;48368;53.406;6.214;2024-03-08T04:24:39;42.55;;;22.60;;
62338;SDS011;48368;53.406;6.214;2024-03-08T04:27:06;49.47;;;23.23;;
62338;SDS011;48368;53.406;6.214;2024-03-08T04:29:31;42.28;;;22.27;;
62338;SDS011;48368;53.406;6.214;2024-03-08T04:31:58;47.80;;;23.05;;
62338;SDS011;48368;53.406;6.214;2024-03-08T04:34:26;43.60;;;23.27;;
62338;SDS011;48368;53.406;6.214;2024-03-08T04:36:53;43.88;;;21.40;;
62338;SDS011;48368;53.406;6.214;2024-03-08T04:39:20;55.22;;;23.45;;
62338;SDS011;48368;53.406;6.214;2024-03-08T04:41:46;48.88;;;22.65;;
62338;SDS011;48368;53.406;6.214;2024-03-08T04:44:12;41.63;;;22.45;;
62338;SDS011;48368;53.406;6.214;2024-03-08T04:46:38;46.15;;;22.98;;
62338;SDS011;48368;53.406;6.214;2024-03-08T04:49:03;44.72;;;20.90;;
62338;SDS011;48368;53.406;6.214;2024-03-08T04:51:32;47.72;;;23.15;;
62338;SDS011;48368;53.406;6.214;2024-03-08T04:53:59;50.88;;;24.58;;
62338;SDS011;48368;53.406;6.214;2024-03-08T04:56:24;41.47;;;20.52;;
62338;SDS011;48368;53.406;6.214;2024-03-08T04:58:50;43.58;;;22.45;;
62338;SDS011;48368;53.406;6.214;2024-03-08T05:01:16;39.28;;;21.10;;
62338;SDS011;48368;53.406;6.214;2024-03-08T05:03:42;45.10;;;22.13;;
62338;SDS011;48368;53.406;6.214;2024-03-08T05:06:08;51.08;;;22.80;;
62338;SDS011;48368;53.406;6.214;2024-03-08T05:08:33;47.50;;;22.55;;
62338;SDS011;48368;53.406;6.214;2024-03-08T05:10:59;44.80;;;20.85;;
62338;SDS011;48368;53.406;6.214;2024-03-08T05:13:31;44.28;;;23.63;;
62338;SDS011;48368;53.406;6.214;2024-03-08T05:15:57;44.00;;;22.05;;
62338;SDS011;48368;53.406;6.214;2024-03-08T05:18:23;45.50;;;21.65;;
62338;SDS011;48368;53.406;6.214;2024-03-08T05:20:49;44.72;;;21.70;;
62338;SDS011;48368;53.406;6.214;2024-03-08T05:23:16;50.28;;;21.58;;
62338;SDS011;48368;53.406;6.214;2024-03-08T05:25:45;44.03;;;22.45;;
62338;SDS011;48368;53.406;6.214;2024-03-08T05:28:14;44.58;;;20.52;;
62338;SDS011;48368;53.406;6.214;2024-03-08T05:30:42;45.78;;;23.08;;
62338;SDS011;48368;53.406;6.214;2024-03-08T05:33:08;41.03;;;21.25;;
62338;SDS011;48368;53.406;6.214;2024-03-08T05:35:39;43.63;;;21.60;;
62338;SDS011;48368;53.406;6.214;2024-03-08T05:38:05;42.00;;;22.10;;
62338;SDS011;48368;53.406;6.214;2024-03-08T05:40:33;45.03;;;22.00;;
62338;SDS011;48368;53.406;6.214;2024-03-08T05:42:59;43.03;;;21.80;;
62338;SDS011;48368;53.406;6.214;2024-03-08T05:45:25;49.60;;;21.67;;
62338;SDS011;48368;53.406;6.214;2024-03-08T05:47:51;42.92;;;21.27;;
62338;SDS011;48368;53.406;6.214;2024-03-08T05:50:17;42.47;;;21.02;;
62338;SDS011;48368;53.406;6.214;2024-03-08T05:52:43;42.25;;;22.65;;
62338;SDS011;48368;53.406;6.214;2024-03-08T05:55:09;42.55;;;21.55;;
62338;SDS011;48368;53.406;6.214;2024-03-08T05:57:35;39.33;;;21.02;;
62338;SDS011;48368;53.406;6.214;2024-03-08T06:00:05;40.05;;;20.80;;
62338;SDS011;48368;53.406;6.214;2024-03-08T06:02:31;40.38;;;20.50;;
62338;SDS011;48368;53.406;6.214;2024-03-08T06:04:56;38.95;;;19.42;;
62338;SDS011;48368;53.406;6.214;2024-03-08T06:07:22;47.63;;;23.30;;
62338;SDS011;48368;53.406;6.214;2024-03-08T06:09:48;46.60;;;22.25;;
62338;SDS011;48368;53.406;6.214;2024-03-08T06:12:14;45.72;;;23.13;;
62338;SDS011;48368;53.406;6.214;2024-03-08T06:14:46;41.10;;;21.45;;
62338;SDS011;48368;53.406;6.214;2024-03-08T06:17:12;41.47;;;20.25;;
62338;SDS011;48368;53.406;6.214;2024-03-08T06:19:37;40.83;;;20.95;;
62338;SDS011;48368;53.406;6.214;2024-03-08T06:22:03;40.50;;;21.33;;
62338;SDS011;48368;53.406;6.214;2024-03-08T06:24:33;41.53;;;21.63;;
62338;SDS011;48368;53.406;6.214;2024-03-08T06:27:01;41.53;;;20.90;;
62338;SDS011;48368;53.406;6.214;2024-03-08T06:29:27;42.28;;;22.00;;
62338;SDS011;48368;53.406;6.214;2024-03-08T06:31:53;40.38;;;19.80;;
62338;SDS011;48368;53.406;6.214;2024-03-08T06:34:19;41.50;;;21.15;;
62338;SDS011;48368;53.406;6.214;2024-03-08T06:36:46;38.80;;;20.35;;
62338;SDS011;48368;53.406;6.214;2024-03-08T06:39:12;39.75;;;20.50;;
62338;SDS011;48368;53.406;6.214;2024-03-08T06:41:40;38.83;;;20.83;;
62338;SDS011;48368;53.406;6.214;2024-03-08T06:44:06;43.40;;;21.63;;
62338;SDS011;48368;53.406;6.214;2024-03-08T06:46:33;39.83;;;20.15;;
62338;SDS011;48368;53.406;6.214;2024-03-08T06:48:59;44.47;;;22.67;;
62338;SDS011;48368;53.406;6.214;2024-03-08T06:51:24;43.92;;;22.63;;
62338;SDS011;48368;53.406;6.214;2024-03-08T06:53:50;44.42;;;19.73;;
62338;SDS011;48368;53.406;6.214;2024-03-08T06:56:20;44.78;;;21.75;;
62338;SDS011;48368;53.406;6.214;2024-03-08T06:58:45;42.42;;;20.75;;
62338;SDS011;48368;53.406;6.214;2024-03-08T07:01:11;40.40;;;19.65;;
62338;SDS011;48368;53.406;6.214;2024-03-08T07:03:41;39.03;;;19.65;;
62338;SDS011;48368;53.406;6.214;2024-03-08T07:06:09;43.50;;;20.90;;
62338;SDS011;48368;53.406;6.214;2024-03-08T07:08:35;40.40;;;21.45;;
62338;SDS011;48368;53.406;6.214;2024-03-08T07:11:01;41.20;;;21.63;;
62338;SDS011;48368;53.406;6.214;2024-03-08T07:13:28;44.33;;;20.23;;
62338;SDS011;48368;53.406;6.214;2024-03-08T07:15:54;39.22;;;21.70;;
62338;SDS011;48368;53.406;6.214;2024-03-08T07:18:20;46.47;;;22.88;;
62338;SDS011;48368;53.406;6.214;2024-03-08T07:20:47;42.33;;;20.52;;
62338;SDS011;48368;53.406;6.214;2024-03-08T07:23:14;39.78;;;21.13;;
62338;SDS011;48368;53.406;6.214;2024-03-08T07:26:00;40.45;;;19.95;;
62338;SDS011;48368;53.406;6.214;2024-03-08T07:28:26;44.78;;;22.30;;
62338;SDS011;48368;53.406;6.214;2024-03-08T07:30:52;44.03;;;21.05;;
62338;SDS011;48368;53.406;6.214;2024-03-08T07:33:26;42.92;;;20.83;;
62338;SDS011;48368;53.406;6.214;2024-03-08T07:35:52;41.75;;;20.65;;
62338;SDS011;48368;53.406;6.214;2024-03-08T07:38:18;44.28;;;21.83;;
62338;SDS011;48368;53.406;6.214;2024-03-08T07:40:46;41.22;;;23.08;;
62338;SDS011;48368;53.406;6.214;2024-03-08T07:43:13;41.90;;;21.20;;
62338;SDS011;48368;53.406;6.214;2024-03-08T07:45:39;43.00;;;20.52;;
62338;SDS011;48368;53.406;6.214;2024-03-08T07:48:05;39.33;;;20.38;;
62338;SDS011;48368;53.406;6.214;2024-03-08T07:50:37;41.05;;;21.23;;
62338;SDS011;48368;53.406;6.214;2024-03-08T07:53:04;39.72;;;21.13;;
62338;SDS011;48368;53.406;6.214;2024-03-08T07:55:32;41.97;;;21.17;;
62338;SDS011;48368;53.406;6.214;2024-03-08T07:57:58;40.42;;;19.58;;
62338;SDS011;48368;53.406;6.214;2024-03-08T08:00:24;42.30;;;22.88;;
62338;SDS011;48368;53.406;6.214;2024-03-08T08:02:52;44.55;;;22.80;;
62338;SDS011;48368;53.406;6.214;2024-03-08T08:05:18;37.53;;;19.65;;
62338;SDS011;48368;53.406;6.214;2024-03-08T08:07:44;41.65;;;21.52;;
62338;SDS011;48368;53.406;6.214;2024-03-08T08:10:11;48.13;;;21.67;;
62338;SDS011;48368;53.406;6.214;2024-03-08T08:12:47;40.50;;;21.67;;
62338;SDS011;48368;53.406;6.214;2024-03-08T08:15:18;39.90;;;20.25;;
62338;SDS011;48368;53.406;6.214;2024-03-08T08:17:44;38.15;;;20.33;;
62338;SDS011;48368;53.406;6.214;2024-03-08T08:20:11;37.25;;;21.13;;
62338;SDS011;48368;53.406;6.214;2024-03-08T08:22:38;39.88;;;21.77;;
62338;SDS011;48368;53.406;6.214;2024-03-08T08:25:08;39.35;;;23.33;;
62338;SDS011;48368;53.406;6.214;2024-03-08T08:27:34;41.42;;;21.40;;
62338;SDS011;48368;53.406;6.214;2024-03-08T08:30:01;42.80;;;21.25;;
62338;SDS011;48368;53.406;6.214;2024-03-08T08:32:33;40.72;;;21.88;;
62338;SDS011;48368;53.406;6.214;2024-03-08T08:35:02;40.85;;;21.35;;
62338;SDS011;48368;53.406;6.214;2024-03-08T08:37:30;40.90;;;20.83;;
62338;SDS011;48368;53.406;6.214;2024-03-08T08:39:56;42.67;;;22.27;;
62338;SDS011;48368;53.406;6.214;2024-03-08T08:42:22;43.53;;;23.80;;
62338;SDS011;48368;53.406;6.214;2024-03-08T08:44:49;39.53;;;23.17;;
62338;SDS011;48368;53.406;6.214;2024-03-08T08:47:15;40.95;;;20.65;;
62338;SDS011;48368;53.406;6.214;2024-03-08T08:49:44;40.83;;;22.38;;
62338;SDS011;48368;53.406;6.214;2024-03-08T08:52:11;39.50;;;22.10;;
62338;SDS011;48368;53.406;6.214;2024-03-08T08:54:37;41.40;;;22.83;;
62338;SDS011;48368;53.406;6.214;2024-03-08T08:57:03;41.15;;;20.33;;
62338;SDS011;48368;53.406;6.214;2024-03-08T08:59:35;36.83;;;18.88;;
62338;SDS011;48368;53.406;6.214;2024-03-08T09:02:05;37.65;;;21.90;;
62338;SDS011;48368;53.406;6.214;2024-03-08T09:04:36;36.47;;;20.42;;
62338;SDS011;48368;53.406;6.214;2024-03-08T09:07:02;35.08;;;20.25;;
62338;SDS011;48368;53.406;6.214;2024-03-08T09:09:31;41.17;;;21.88;;
62338;SDS011;48368;53.406;6.214;2024-03-08T09:11:57;40.17;;;22.20;;
62338;SDS011;48368;53.406;6.214;2024-03-08T09:14:23;39.45;;;22.08;;
62338;SDS011;48368;53.406;6.214;2024-03-08T09:16:51;39.50;;;21.40;;
62338;SDS011;48368;53.406;6.214;2024-03-08T09:19:16;37.13;;;21.13;;
62338;SDS011;48368;53.406;6.214;2024-03-08T09:21:44;38.75;;;21.48;;
62338;SDS011;48368;53.406;6.214;2024-03-08T09:24:10;37.50;;;21.92;;
62338;SDS011;48368;53.406;6.214;2024-03-08T09:26:36;38.47;;;19.52;;
62338;SDS011;48368;53.406;6.214;2024-03-08T09:29:02;38.20;;;21.05;;
62338;SDS011;48368;53.406;6.214;2024-03-08T09:31:28;32.92;;;18.75;;
62338;SDS011;48368;53.406;6.214;2024-03-08T09:33:54;36.58;;;22.52;;
62338;SDS011;48368;53.406;6.214;2024-03-08T09:36:19;37.10;;;19.33;;
62338;SDS011;48368;53.406;6.214;2024-03-08T09:38:46;36.75;;;20.58;;
62338;SDS011;48368;53.406;6.214;2024-03-08T09:41:15;35.65;;;21.10;;
62338;SDS011;48368;53.406;6.214;2024-03-08T09:43:40;39.03;;;21.58;;
62338;SDS011;48368;53.406;6.214;2024-03-08T09:46:06;33.72;;;18.05;;
62338;SDS011;48368;53.406;6.214;2024-03-08T09:48:36;36.67;;;19.85;;
62338;SDS011;48368;53.406;6.214;2024-03-08T09:51:02;34.33;;;18.88;;
62338;SDS011;48368;53.406;6.214;2024-03-08T09:53:29;38.00;;;18.08;;
62338;SDS011;48368;53.406;6.214;2024-03-08T09:55:56;37.20;;;21.05;;
62338;SDS011;48368;53.406;6.214;2024-03-08T09:58:21;34.75;;;21.23;;
62338;SDS011;48368;53.406;6.214;2024-03-08T10:01:01;38.35;;;21.05;;
62338;SDS011;48368;53.406;6.214;2024-03-08T10:03:29;37.13;;;21.48;;
62338;SDS011;48368;53.406;6.214;2024-03-08T10:05:57;38.38;;;20.92;;
62338;SDS011;48368;53.406;6.214;2024-03-08T10:08:29;37.80;;;20.42;;
62338;SDS011;48368;53.406;6.214;2024-03-08T10:10:55;35.67;;;20.35;;
62338;SDS011;48368;53.406;6.214;2024-03-08T10:13:23;37.38;;;23.48;;
62338;SDS011;48368;53.406;6.214;2024-03-08T10:15:52;36.28;;;21.48;;
62338;SDS011;48368;53.406;6.214;2024-03-08T10:18:17;38.05;;;21.60;;
62338;SDS011;48368;53.406;6.214;2024-03-08T10:21:06;40.85;;;24.45;;
62338;SDS011;48368;53.406;6.214;2024-03-08T10:23:35;37.22;;;22.27;;
62338;SDS011;48368;53.406;6.214;2024-03-08T10:26:17;38.58;;;23.60;;
62338;SDS011;48368;53.406;6.214;2024-03-08T10:28:46;39.58;;;22.23;;
62338;SDS011;48368;53.406;6.214;2024-03-08T10:31:19;40.75;;;22.10;;
62338;SDS011;48368;53.406;6.214;2024-03-08T10:33:48;41.20;;;22.20;;
62338;SDS011;48368;53.406;6.214;2024-03-08T10:36:15;38.75;;;22.40;;
62338;SDS011;48368;53.406;6.214;2024-03-08T10:38:42;39.30;;;22.10;;
62338;SDS011;48368;53.406;6.214;2024-03-08T10:41:12;38.25;;;22.20;;
62338;SDS011;48368;53.406;6.214;2024-03-08T10:43:43;41.20;;;21.77;;
62338;SDS011;48368;53.406;6.214;2024-03-08T10:49:12;39.45;;;22.63;;
62338;SDS011;48368;53.406;6.214;2024-03-08T10:51:47;41.45;;;22.80;;
62338;SDS011;48368;53.406;6.214;2024-03-08T10:54:16;40.85;;;21.38;;
62338;SDS011;48368;53.406;6.214;2024-03-08T10:56:45;35.95;;;21.63;;
62338;SDS011;48368;53.406;6.214;2024-03-08T10:59:14;36.95;;;22.00;;
62338;SDS011;48368;53.406;6.214;2024-03-08T11:01:40;37.80;;;23.10;;
62338;SDS011;48368;53.406;6.214;2024-03-08T11:04:06;38.63;;;22.88;;
62338;SDS011;48368;53.406;6.214;2024-03-08T11:09:08;39.90;;;22.95;;
62338;SDS011;48368;53.406;6.214;2024-03-08T11:11:52;39.25;;;23.13;;
62338;SDS011;48368;53.406;6.214;2024-03-08T11:14:42;42.05;;;22.45;;
62338;SDS011;48368;53.406;6.214;2024-03-08T11:17:09;41.88;;;23.00;;
62338;SDS011;48368;53.406;6.214;2024-03-08T11:19:35;40.60;;;23.88;;
62338;SDS011;48368;53.406;6.214;2024-03-08T11:22:01;40.70;;;21.95;;
62338;SDS011;48368;53.406;6.214;2024-03-08T11:24:28;39.22;;;23.48;;
62338;SDS011;48368;53.406;6.214;2024-03-08T11:27:03;36.95;;;19.67;;
62338;SDS011;48368;53.406;6.214;2024-03-08T11:32:04;35.60;;;22.40;;
62338;SDS011;48368;53.406;6.214;2024-03-08T11:34:37;36.60;;;23.02;;
62338;SDS011;48368;53.406;6.214;2024-03-08T11:37:05;43.22;;;25.65;;
62338;SDS011;48368;53.406;6.214;2024-03-08T11:39:46;38.10;;;21.65;;
62338;SDS011;48368;53.406;6.214;2024-03-08T11:42:16;36.45;;;20.95;;
62338;SDS011;48368;53.406;6.214;2024-03-08T11:44:46;42.58;;;23.58;;
62338;SDS011;48368;53.406;6.214;2024-03-08T11:47:12;38.83;;;24.60;;
62338;SDS011;48368;53.406;6.214;2024-03-08T11:49:39;38.00;;;21.55;;
62338;SDS011;48368;53.406;6.214;2024-03-08T11:52:14;37.08;;;22.73;;
62338;SDS011;48368;53.406;6.214;2024-03-08T11:54:41;40.05;;;24.00;;
62338;SDS011;48368;53.406;6.214;2024-03-08T11:57:08;38.70;;;22.88;;
62338;SDS011;48368;53.406;6.214;2024-03-08T11:59:49;37.97;;;23.00;;
62338;SDS011;48368;53.406;6.214;2024-03-08T12:02:18;40.20;;;25.20;;
62338;SDS011;48368;53.406;6.214;2024-03-08T12:04:47;37.55;;;23.33;;
62338;SDS011;48368;53.406;6.214;2024-03-08T12:07:12;38.70;;;23.58;;
62338;SDS011;48368;53.406;6.214;2024-03-08T12:09:42;38.80;;;22.65;;
62338;SDS011;48368;53.406;6.214;2024-03-08T12:12:11;39.25;;;23.58;;
62338;SDS011;48368;53.406;6.214;2024-03-08T12:14:37;39.70;;;24.50;;
62338;SDS011;48368;53.406;6.214;2024-03-08T12:17:04;36.83;;;22.38;;
62338;SDS011;48368;53.406;6.214;2024-03-08T12:19:30;38.63;;;22.15;;
62338;SDS011;48368;53.406;6.214;2024-03-08T12:21:57;38.58;;;22.42;;
62338;SDS011;48368;53.406;6.214;2024-03-08T12:24:34;37.95;;;23.73;;
62338;SDS011;48368;53.406;6.214;2024-03-08T12:27:10;37.13;;;23.27;;
62338;SDS011;48368;53.406;6.214;2024-03-08T12:29:43;38.90;;;23.98;;
62338;SDS011;48368;53.406;6.214;2024-03-08T12:32:08;42.58;;;22.98;;
62338;SDS011;48368;53.406;6.214;2024-03-08T12:34:36;37.65;;;23.15;;
62338;SDS011;48368;53.406;6.214;2024-03-08T12:37:11;40.25;;;22.63;;
62338;SDS011;48368;53.406;6.214;2024-03-08T12:39:37;39.10;;;23.77;;
62338;SDS011;48368;53.406;6.214;2024-03-08T12:42:07;40.22;;;23.85;;
62338;SDS011;48368;53.406;6.214;2024-03-08T12:44:32;40.05;;;23.23;;
62338;SDS011;48368;53.406;6.214;2024-03-08T12:46:58;37.42;;;22.83;;
62338;SDS011;48368;53.406;6.214;2024-03-08T12:49:24;38.83;;;23.50;;
62338;SDS011;48368;53.406;6.214;2024-03-08T12:51:50;36.97;;;23.05;;
62338;SDS011;48368;53.406;6.214;2024-03-08T12:54:17;39.33;;;23.45;;
62338;SDS011;48368;53.406;6.214;2024-03-08T12:56:54;37.58;;;22.83;;
62338;SDS011;48368;53.406;6.214;2024-03-08T12:59:23;35.25;;;21.83;;
62338;SDS011;48368;53.406;6.214;2024-03-08T13:01:48;34.95;;;20.50;;
62338;SDS011;48368;53.406;6.214;2024-03-08T13:04:16;34.28;;;20.52;;
62338;SDS011;48368;53.406;6.214;2024-03-08T13:06:43;35.42;;;23.92;;
62338;SDS011;48368;53.406;6.214;2024-03-08T13:09:11;38.42;;;23.40;;
62338;SDS011;48368;53.406;6.214;2024-03-08T13:11:37;36.70;;;21.95;;
62338;SDS011;48368;53.406;6.214;2024-03-08T13:14:03;34.72;;;20.75;;
62338;SDS011;48368;53.406;6.214;2024-03-08T13:16:30;34.58;;;21.27;;
62338;SDS011;48368;53.406;6.214;2024-03-08T13:18:56;35.42;;;21.98;;
62338;SDS011;48368;53.406;6.214;2024-03-08T13:21:22;35.03;;;19.95;;
62338;SDS011;48368;53.406;6.214;2024-03-08T13:23:52;34.03;;;22.05;;
62338;SDS011;48368;53.406;6.214;2024-03-08T13:26:18;35.60;;;21.92;;
62338;SDS011;48368;53.406;6.214;2024-03-08T13:28:49;39.58;;;21.05;;
62338;SDS011;48368;53.406;6.214;2024-03-08T13:31:21;34.72;;;23.50;;
62338;SDS011;48368;53.406;6.214;2024-03-08T13:33:50;32.10;;;20.88;;
62338;SDS011;48368;53.406;6.214;2024-03-08T13:36:22;36.08;;;21.17;;
62338;SDS011;48368;53.406;6.214;2024-03-08T13:38:50;30.88;;;18.67;;
62338;SDS011;48368;53.406;6.214;2024-03-08T13:41:15;33.97;;;20.23;;
62338;SDS011;48368;53.406;6.214;2024-03-08T13:43:42;31.88;;;19.92;;
62338;SDS011;48368;53.406;6.214;2024-03-08T13:46:10;32.15;;;21.08;;
62338;SDS011;48368;53.406;6.214;2024-03-08T13:48:36;35.97;;;20.88;;
62338;SDS011;48368;53.406;6.214;2024-03-08T13:51:06;33.20;;;19.95;;
62338;SDS011;48368;53.406;6.214;2024-03-08T13:53:33;33.35;;;21.50;;
62338;SDS011;48368;53.406;6.214;2024-03-08T13:56:02;32.80;;;21.40;;
62338;SDS011;48368;53.406;6.214;2024-03-08T13:58:28;33.58;;;21.17;;
62338;SDS011;48368;53.406;6.214;2024-03-08T14:00:53;33.53;;;21.10;;
62338;SDS011;48368;53.406;6.214;2024-03-08T14:03:20;31.65;;;20.55;;
62338;SDS011;48368;53.406;6.214;2024-03-08T14:05:52;37.78;;;19.45;;
62338;SDS011;48368;53.406;6.214;2024-03-08T14:08:23;37.13;;;20.63;;
62338;SDS011;48368;53.406;6.214;2024-03-08T14:10:49;33.25;;;20.10;;
62338;SDS011;48368;53.406;6.214;2024-03-08T14:13:19;32.50;;;20.15;;
62338;SDS011;48368;53.406;6.214;2024-03-08T14:15:44;34.90;;;19.90;;
62338;SDS011;48368;53.406;6.214;2024-03-08T14:18:11;33.63;;;20.50;;
62338;SDS011;48368;53.406;6.214;2024-03-08T14:20:38;31.85;;;20.33;;
62338;SDS011;48368;53.406;6.214;2024-03-08T14:23:04;31.52;;;19.90;;
62338;SDS011;48368;53.406;6.214;2024-03-08T14:25:36;33.90;;;21.83;;
62338;SDS011;48368;53.406;6.214;2024-03-08T14:28:01;31.20;;;20.08;;
62338;SDS011;48368;53.406;6.214;2024-03-08T14:30:31;30.52;;;19.73;;
62338;SDS011;48368;53.406;6.214;2024-03-08T14:33:01;29.25;;;19.05;;
62338;SDS011;48368;53.406;6.214;2024-03-08T14:35:27;34.78;;;20.83;;
62338;SDS011;48368;53.406;6.214;2024-03-08T14:37:54;30.75;;;19.33;;